createdAt,value
2018-11-29T00:01:03.739Z,10.93
2018-11-29T00:03:32.659Z,11.07
2018-11-29T00:06:08.476Z,10.53
2018-11-29T00:08:37.428Z,11.87
2018-11-29T00:14:01.361Z,9.93
2018-11-29T00:19:31.614Z,10.60
2018-11-29T00:22:14.613Z,10.17
2018-11-29T00:24:55.979Z,11.20
2018-11-29T00:27:24.875Z,11.03
2018-11-29T00:30:07.065Z,10.97
2018-11-29T00:35:36.650Z,9.43
2018-11-29T00:38:06.670Z,10.17
2018-11-29T00:40:47.005Z,10.67
2018-11-29T00:43:20.611Z,8.23
2018-11-29T00:45:49.551Z,10.13
2018-11-29T00:48:24.509Z,10.50
2018-11-29T00:51:12.861Z,9.70
2018-11-29T00:56:46.988Z,9.73
2018-11-29T00:59:38.396Z,9.37
2018-11-29T01:02:07.322Z,10.37
2018-11-29T01:04:58.829Z,10.87
2018-11-29T01:10:28.068Z,11.20
2018-11-29T01:13:09.100Z,10.60
2018-11-29T01:18:33.798Z,9.87
2018-11-29T01:21:21.273Z,10.03
2018-11-29T01:24:02.961Z,9.40
2018-11-29T01:26:44.626Z,11.07
2018-11-29T01:29:28.259Z,11.30
2018-11-29T01:31:57.161Z,11.10
2018-11-29T01:34:27.093Z,10.53
2018-11-29T01:36:56.156Z,12.97
2018-11-29T01:39:36.172Z,9.07
2018-11-29T01:42:06.155Z,10.37
2018-11-29T01:44:40.647Z,12.13
2018-11-29T01:50:07.234Z,10.40
2018-11-29T01:52:54.185Z,11.10
2018-11-29T01:55:35.923Z,10.87
2018-11-29T01:58:11.064Z,10.53
2018-11-29T02:00:40.982Z,10.90
2018-11-29T02:03:09.850Z,10.50
2018-11-29T02:05:38.738Z,11.40
2018-11-29T02:08:07.799Z,10.37
2018-11-29T02:10:45.989Z,11.37
2018-11-29T02:13:14.876Z,10.00
2018-11-29T02:15:43.766Z,11.30
2018-11-29T02:18:13.701Z,13.60
2018-11-29T02:20:42.564Z,11.00
2018-11-29T02:23:11.420Z,12.83
2018-11-29T02:25:40.268Z,10.97
2018-11-29T02:28:09.134Z,10.57
2018-11-29T02:30:38.141Z,10.33
2018-11-29T02:33:07.045Z,11.60
2018-11-29T02:35:35.992Z,11.00
2018-11-29T02:38:05.948Z,12.80
2018-11-29T02:40:36.840Z,10.53
2018-11-29T02:43:10.227Z,10.70
2018-11-29T02:45:39.131Z,10.37
2018-11-29T02:48:07.985Z,12.93
2018-11-29T02:50:36.897Z,12.10
2018-11-29T02:53:06.809Z,15.50
2018-11-29T02:55:39.589Z,13.47
2018-11-29T02:58:08.462Z,12.80
2018-11-29T03:00:44.392Z,11.63
2018-11-29T03:03:14.308Z,11.57
2018-11-29T03:05:43.226Z,13.17
2018-11-29T03:08:12.084Z,13.33
2018-11-29T03:10:40.971Z,12.23
2018-11-29T03:13:10.868Z,12.13
2018-11-29T03:15:39.803Z,12.13
2018-11-29T03:18:20.609Z,12.87
2018-11-29T03:20:51.564Z,13.57
2018-11-29T03:23:27.542Z,13.37
2018-11-29T03:25:56.561Z,12.83
2018-11-29T03:28:25.474Z,10.90
2018-11-29T03:30:54.401Z,10.43
2018-11-29T03:33:27.900Z,11.13
2018-11-29T03:35:56.802Z,11.23
2018-11-29T03:38:25.736Z,12.77
2018-11-29T03:40:54.723Z,12.83
2018-11-29T03:43:28.178Z,10.83
2018-11-29T03:46:01.166Z,13.00
2018-11-29T03:48:30.032Z,11.40
2018-11-29T03:51:15.475Z,16.13
2018-11-29T03:53:44.314Z,11.90
2018-11-29T03:56:25.911Z,12.13
2018-11-29T04:01:51.464Z,13.83
2018-11-29T04:04:20.347Z,12.47
2018-11-29T04:06:55.507Z,13.40
2018-11-29T04:09:26.427Z,12.47
2018-11-29T04:11:55.389Z,12.27
2018-11-29T04:14:45.178Z,12.67
2018-11-29T04:17:14.046Z,12.63
2018-11-29T04:19:42.947Z,13.00
2018-11-29T04:22:11.866Z,14.87
2018-11-29T04:24:40.700Z,12.33
2018-11-29T04:27:11.788Z,13.20
2018-11-29T04:29:40.670Z,14.60
2018-11-29T04:32:13.861Z,12.80
2018-11-29T04:34:44.883Z,10.93
2018-11-29T04:37:13.756Z,13.70
2018-11-29T04:39:55.397Z,11.80
2018-11-29T04:42:48.700Z,13.33
2018-11-29T04:45:21.567Z,15.17
2018-11-29T04:48:13.682Z,11.70
2018-11-29T04:50:47.475Z,12.70
2018-11-29T04:53:27.649Z,13.40
2018-11-29T04:55:57.559Z,12.63
2018-11-29T04:58:26.623Z,14.17
2018-11-29T05:00:55.650Z,11.57
2018-11-29T05:03:28.872Z,11.80
2018-11-29T05:05:57.816Z,11.70
2018-11-29T05:08:40.573Z,11.47
2018-11-29T05:11:11.478Z,11.33
2018-11-29T05:13:45.372Z,11.60
2018-11-29T05:16:20.045Z,15.10
2018-11-29T05:18:59.254Z,12.67
2018-11-29T05:21:28.203Z,13.93
2018-11-29T05:23:59.260Z,12.67
2018-11-29T05:26:28.435Z,14.37
2018-11-29T05:29:03.789Z,12.93
2018-11-29T05:31:35.831Z,13.07
2018-11-29T05:34:11.278Z,12.77
2018-11-29T05:36:42.241Z,14.87
2018-11-29T05:39:12.193Z,16.03
2018-11-29T05:41:44.702Z,13.97
2018-11-29T05:44:20.765Z,13.10
2018-11-29T05:47:02.894Z,14.50
2018-11-29T05:49:33.907Z,14.90
2018-11-29T05:52:06.576Z,16.00
2018-11-29T05:54:35.652Z,16.87
2018-11-29T05:57:04.560Z,15.60
2018-11-29T05:59:33.465Z,17.83
2018-11-29T06:02:04.378Z,17.57
2018-11-29T06:04:34.260Z,17.33
2018-11-29T06:07:21.738Z,17.87
2018-11-29T06:09:51.625Z,17.80
2018-11-29T06:12:22.592Z,17.57
2018-11-29T06:14:51.495Z,18.37
2018-11-29T06:17:26.162Z,18.00
2018-11-29T06:22:48.806Z,18.57
2018-11-29T06:25:21.641Z,20.20
2018-11-29T06:27:50.789Z,18.70
2018-11-29T06:33:25.603Z,18.10
2018-11-29T06:36:02.595Z,19.57
2018-11-29T06:38:31.716Z,20.03
2018-11-29T06:41:04.666Z,20.93
2018-11-29T06:43:33.598Z,20.43
2018-11-29T06:46:07.224Z,17.83
2018-11-29T06:51:37.990Z,19.83
2018-11-29T06:54:08.942Z,17.73
2018-11-29T06:56:43.372Z,18.60
2018-11-29T06:59:17.147Z,19.30
2018-11-29T07:02:02.724Z,17.27
2018-11-29T07:04:31.702Z,20.50
2018-11-29T07:07:02.686Z,19.60
2018-11-29T07:09:31.661Z,18.43
2018-11-29T07:12:04.067Z,19.57
2018-11-29T07:14:39.391Z,17.93
2018-11-29T07:20:03.674Z,18.10
2018-11-29T07:22:48.937Z,18.20
2018-11-29T07:25:31.557Z,19.67
2018-11-29T07:28:06.976Z,18.70
2018-11-29T07:30:46.721Z,18.87
2018-11-29T07:33:22.214Z,19.00
2018-11-29T07:35:52.164Z,18.73
2018-11-29T07:38:22.158Z,16.30
2018-11-29T07:41:00.962Z,19.13
2018-11-29T07:43:47.155Z,17.30
2018-11-29T07:46:17.296Z,17.83
2018-11-29T07:48:45.004Z,17.40
2018-11-29T07:51:21.252Z,17.33
2018-11-29T07:53:55.882Z,18.13
2018-11-29T07:56:31.699Z,16.07
2018-11-29T07:59:01.603Z,18.67
2018-11-29T08:01:30.592Z,16.57
2018-11-29T08:04:11.142Z,17.00
2018-11-29T08:06:40.437Z,19.77
2018-11-29T08:09:09.340Z,16.80
2018-11-29T08:11:39.260Z,16.90
2018-11-29T08:17:20.821Z,16.43
2018-11-29T08:20:09.928Z,16.77
2018-11-29T08:22:42.537Z,17.23
2018-11-29T08:25:17.758Z,17.40
2018-11-29T08:27:50.168Z,17.67
2018-11-29T08:30:26.314Z,17.10
2018-11-29T08:32:55.250Z,17.53
2018-11-29T08:35:28.468Z,16.93
2018-11-29T08:38:01.256Z,16.40
2018-11-29T08:40:30.279Z,17.20
2018-11-29T08:42:59.241Z,16.43
2018-11-29T08:45:31.741Z,17.43
2018-11-29T08:48:00.721Z,17.37
2018-11-29T08:50:46.879Z,18.73
2018-11-29T08:53:23.084Z,16.40
2018-11-29T08:58:49.043Z,17.13
2018-11-29T09:01:19.063Z,16.37
2018-11-29T09:03:54.980Z,15.77
2018-11-29T09:06:28.429Z,14.73
2018-11-29T09:08:58.306Z,16.10
2018-11-29T09:11:31.779Z,16.23
2018-11-29T09:14:17.472Z,16.83
2018-11-29T09:16:52.904Z,15.03
2018-11-29T09:22:33.496Z,15.90
2018-11-29T09:25:13.503Z,16.07
2018-11-29T09:27:58.911Z,14.70
2018-11-29T09:30:33.836Z,16.17
2018-11-29T09:33:21.390Z,15.47
2018-11-29T09:35:55.930Z,15.83
2018-11-29T09:38:31.348Z,15.13
2018-11-29T09:41:19.605Z,16.77
2018-11-29T09:46:48.820Z,16.97
2018-11-29T09:49:19.788Z,13.53
2018-11-29T09:52:00.719Z,17.43
2018-11-29T09:54:35.298Z,15.97
2018-11-29T09:57:15.893Z,15.13
2018-11-29T10:00:03.235Z,13.50
2018-11-29T10:02:32.139Z,16.03
2018-11-29T10:05:00.976Z,14.37
2018-11-29T10:07:29.844Z,15.37
2018-11-29T10:09:58.761Z,16.73
2018-11-29T10:12:27.664Z,15.90
2018-11-29T10:15:04.522Z,15.83
2018-11-29T10:17:33.433Z,15.47
2018-11-29T10:20:02.286Z,14.50
2018-11-29T10:22:31.191Z,13.57
2018-11-29T10:25:22.331Z,15.53
2018-11-29T10:27:59.448Z,13.77
2018-11-29T10:30:32.059Z,14.70
2018-11-29T10:33:02.974Z,12.97
2018-11-29T10:35:31.878Z,16.83
2018-11-29T10:38:00.930Z,16.37
2018-11-29T10:43:30.581Z,14.83
2018-11-29T10:45:59.499Z,15.20
2018-11-29T10:48:28.364Z,13.80
2018-11-29T10:50:57.230Z,16.87
2018-11-29T10:53:26.158Z,17.33
2018-11-29T10:55:55.061Z,16.43
2018-11-29T10:58:23.932Z,13.87
2018-11-29T11:00:58.161Z,16.03
2018-11-29T11:03:27.065Z,16.40
2018-11-29T11:05:56.061Z,13.30
2018-11-29T11:08:24.945Z,12.47
2018-11-29T11:10:53.804Z,13.50
2018-11-29T11:13:43.579Z,14.83
2018-11-29T11:16:24.858Z,14.97
2018-11-29T11:19:01.307Z,16.73
2018-11-29T11:21:36.799Z,16.10
2018-11-29T11:24:07.121Z,14.40
2018-11-29T11:26:37.012Z,14.67
2018-11-29T11:31:59.672Z,18.33
2018-11-29T11:34:44.775Z,17.10
2018-11-29T11:37:13.646Z,15.73
2018-11-29T11:39:48.492Z,16.20
2018-11-29T11:42:21.289Z,16.07
2018-11-29T11:44:50.240Z,17.53
2018-11-29T11:47:31.295Z,20.00
2018-11-29T11:50:01.189Z,18.23
2018-11-29T11:52:47.231Z,16.83
2018-11-29T11:55:32.801Z,14.97
2018-11-29T11:58:09.092Z,19.20
2018-11-29T12:00:39.421Z,17.90
2018-11-29T12:03:09.997Z,17.47
2018-11-29T12:06:01.758Z,15.90
2018-11-29T12:08:30.676Z,15.13
2018-11-29T12:11:03.353Z,16.33
2018-11-29T12:13:32.220Z,16.03
2018-11-29T12:16:07.522Z,17.13
2018-11-29T12:18:42.309Z,14.73
2018-11-29T12:21:25.458Z,13.47
2018-11-29T12:23:58.360Z,13.23
2018-11-29T12:26:31.966Z,15.57
2018-11-29T12:29:01.938Z,14.03
2018-11-29T12:31:48.651Z,14.27
2018-11-29T12:34:38.425Z,15.03
2018-11-29T12:37:08.382Z,15.23
2018-11-29T12:42:49.615Z,14.93
2018-11-29T12:48:13.178Z,14.20
2018-11-29T12:53:47.074Z,12.60
2018-11-29T12:56:17.108Z,13.63
2018-11-29T12:58:50.236Z,12.50
2018-11-29T13:01:19.138Z,17.23
2018-11-29T13:03:48.079Z,12.63
2018-11-29T13:06:16.984Z,14.50
2018-11-29T13:08:54.145Z,15.27
2018-11-29T13:11:23.098Z,16.77
2018-11-29T13:13:55.830Z,17.00
2018-11-29T13:16:24.738Z,16.67
2018-11-29T13:18:53.604Z,15.60
2018-11-29T13:21:22.505Z,17.00
2018-11-29T13:23:51.389Z,18.73
2018-11-29T13:26:20.291Z,15.67
2018-11-29T13:28:50.278Z,14.87
2018-11-29T13:31:19.139Z,14.93
2018-11-29T13:33:48.117Z,15.50
2018-11-29T13:36:16.925Z,15.23
2018-11-29T13:38:45.842Z,19.10
2018-11-29T13:41:14.820Z,16.57
2018-11-29T13:43:43.704Z,14.30
2018-11-29T13:46:12.566Z,15.37
2018-11-29T13:48:43.559Z,16.60
2018-11-29T13:51:12.442Z,19.00
2018-11-29T13:53:43.425Z,19.07
2018-11-29T13:56:25.971Z,15.63
2018-11-29T13:58:54.876Z,16.57
2018-11-29T14:01:23.756Z,15.50
2018-11-29T14:04:06.379Z,16.13
2018-11-29T14:06:47.576Z,15.10
2018-11-29T14:09:26.447Z,14.10
2018-11-29T14:11:55.355Z,15.37
2018-11-29T14:14:28.571Z,16.03
2018-11-29T14:17:20.390Z,13.17
2018-11-29T14:19:49.293Z,13.43
2018-11-29T14:22:24.422Z,13.40
2018-11-29T14:24:59.798Z,13.60
2018-11-29T14:27:27.742Z,13.60
2018-11-29T14:29:56.749Z,13.67
2018-11-29T14:32:25.704Z,10.40
2018-11-29T14:35:07.004Z,12.07
2018-11-29T14:37:35.975Z,12.50
2018-11-29T14:40:07.761Z,11.23
2018-11-29T14:42:38.824Z,11.70
2018-11-29T14:45:21.571Z,14.07
2018-11-29T14:48:09.231Z,12.10
2018-11-29T14:50:43.798Z,13.70
2018-11-29T14:53:19.260Z,12.60
2018-11-29T14:55:51.868Z,12.63
2018-11-29T14:58:27.798Z,12.73
2018-11-29T15:01:02.527Z,14.53
2018-11-29T15:03:36.705Z,11.87
2018-11-29T15:06:10.049Z,14.93
2018-11-29T15:08:45.879Z,12.87
2018-11-29T15:11:21.642Z,15.63
2018-11-29T15:14:02.355Z,15.33
2018-11-29T15:16:32.280Z,12.53
2018-11-29T15:19:09.835Z,15.50
2018-11-29T15:21:42.990Z,15.70
2018-11-29T15:24:12.994Z,17.40
2018-11-29T15:26:50.290Z,15.13
2018-11-29T15:29:32.688Z,14.43
2018-11-29T15:32:02.714Z,16.23
2018-11-29T15:34:32.594Z,16.00
2018-11-29T15:37:07.226Z,17.20
2018-11-29T15:39:57.316Z,15.90
2018-11-29T15:42:37.249Z,14.93
2018-11-29T15:45:11.524Z,13.90
2018-11-29T15:47:47.476Z,16.57
2018-11-29T15:50:26.397Z,14.27
2018-11-29T15:53:03.108Z,15.33
2018-11-29T15:55:45.308Z,15.57
2018-11-29T15:58:14.200Z,15.80
2018-11-29T16:00:49.028Z,16.77
2018-11-29T16:03:21.020Z,16.23
2018-11-29T16:05:53.945Z,14.93
2018-11-29T16:08:26.872Z,15.00
2018-11-29T16:11:06.057Z,16.37
2018-11-29T16:13:35.034Z,14.33
2018-11-29T16:16:03.997Z,15.67
2018-11-29T16:18:32.992Z,16.77
2018-11-29T16:24:05.288Z,15.43
2018-11-29T16:26:41.682Z,14.97
2018-11-29T16:29:24.894Z,16.77
2018-11-29T16:31:53.802Z,14.43
2018-11-29T16:34:26.826Z,14.87
2018-11-29T16:37:02.816Z,14.90
2018-11-29T16:39:36.182Z,13.33
2018-11-29T16:45:02.222Z,13.67
2018-11-29T16:47:37.017Z,13.40
2018-11-29T16:50:13.040Z,13.33
2018-11-29T16:52:54.306Z,12.80
2018-11-29T16:55:29.115Z,13.43
2018-11-29T16:58:00.854Z,11.30
2018-11-29T17:00:31.863Z,12.10
2018-11-29T17:03:06.552Z,12.40
2018-11-29T17:05:39.214Z,15.03
2018-11-29T17:08:10.166Z,11.20
2018-11-29T17:10:50.194Z,13.17
2018-11-29T17:13:20.274Z,13.87
2018-11-29T17:15:53.429Z,13.40
2018-11-29T17:18:35.885Z,12.13
2018-11-29T17:21:10.723Z,12.77
2018-11-29T17:23:43.523Z,14.83
2018-11-29T17:26:25.156Z,12.27
2018-11-29T17:28:57.959Z,11.77
2018-11-29T17:34:20.427Z,12.97
2018-11-29T17:36:55.338Z,12.87
2018-11-29T17:39:24.230Z,12.77
2018-11-29T17:41:56.557Z,14.10
2018-11-29T17:44:35.649Z,11.83
2018-11-29T17:47:05.934Z,14.97
2018-11-29T17:49:34.866Z,13.43
2018-11-29T17:52:03.760Z,12.80
2018-11-29T17:54:34.676Z,13.43
2018-11-29T17:57:09.314Z,14.13
2018-11-29T17:59:38.217Z,11.83
2018-11-29T18:02:07.127Z,12.50
2018-11-29T18:04:42.272Z,12.10
2018-11-29T18:07:11.154Z,10.97
2018-11-29T18:09:45.790Z,13.33
2018-11-29T18:12:16.165Z,15.23
2018-11-29T18:14:51.383Z,13.20
2018-11-29T18:17:22.255Z,12.80
2018-11-29T18:20:04.415Z,12.00
2018-11-29T18:22:33.183Z,13.67
2018-11-29T18:25:03.164Z,13.30
2018-11-29T18:27:32.048Z,16.43
2018-11-29T18:30:09.286Z,13.77
2018-11-29T18:32:38.242Z,13.87
2018-11-29T18:35:23.799Z,13.83
2018-11-29T18:37:53.730Z,14.57
2018-11-29T18:40:23.654Z,14.47
2018-11-29T18:42:56.553Z,13.97
2018-11-29T18:45:35.902Z,13.83
2018-11-29T18:48:10.862Z,15.87
2018-11-29T18:50:46.739Z,14.20
2018-11-29T18:53:23.472Z,13.30
2018-11-29T18:55:54.364Z,15.77
2018-11-29T19:01:17.617Z,13.27
2018-11-29T19:04:04.767Z,13.80
2018-11-29T19:06:33.813Z,13.37
2018-11-29T19:09:08.529Z,14.27
2018-11-29T19:11:38.936Z,14.27
2018-11-29T19:17:07.456Z,13.67
2018-11-29T19:19:37.080Z,12.87
2018-11-29T19:22:06.834Z,11.67
2018-11-29T19:24:39.724Z,11.90
2018-11-29T19:27:33.012Z,14.13
2018-11-29T19:30:04.321Z,15.40
2018-11-29T19:32:36.916Z,14.40
2018-11-29T19:35:17.720Z,14.63
2018-11-29T19:38:05.409Z,12.20
2018-11-29T19:40:39.371Z,12.90
2018-11-29T19:43:31.032Z,11.77
2018-11-29T19:46:00.971Z,13.40
2018-11-29T19:48:48.664Z,12.47
2018-11-29T19:51:19.723Z,11.40
2018-11-29T19:54:00.903Z,12.33
2018-11-29T19:56:31.858Z,13.80
2018-11-29T19:59:12.272Z,11.70
2018-11-29T20:01:45.654Z,12.90
2018-11-29T20:04:27.180Z,12.27
2018-11-29T20:06:56.139Z,12.40
2018-11-29T20:09:47.182Z,10.77
2018-11-29T20:12:23.530Z,12.80
2018-11-29T20:17:55.890Z,12.10
2018-11-29T20:20:26.814Z,14.93
2018-11-29T20:23:08.707Z,11.57
2018-11-29T20:25:44.697Z,13.93
2018-11-29T20:28:15.671Z,12.40
2018-11-29T20:30:46.685Z,10.63
2018-11-29T20:33:15.642Z,11.27
2018-11-29T20:35:44.690Z,10.87
2018-11-29T20:38:24.775Z,16.27
2018-11-29T20:41:05.966Z,11.13
2018-11-29T20:43:52.661Z,12.30
2018-11-29T20:46:34.436Z,10.77
2018-11-29T20:52:00.790Z,10.87
2018-11-29T20:54:35.977Z,12.50
2018-11-29T20:57:08.201Z,11.83
2018-11-29T20:59:43.362Z,10.53
2018-11-29T21:02:14.306Z,13.33
2018-11-29T21:04:47.399Z,11.60
2018-11-29T21:07:21.320Z,11.57
2018-11-29T21:09:51.498Z,10.13
2018-11-29T21:12:22.474Z,12.97
2018-11-29T21:17:47.118Z,10.20
2018-11-29T21:20:29.573Z,13.17
2018-11-29T21:23:02.449Z,13.43
2018-11-29T21:25:37.608Z,11.87
2018-11-29T21:28:11.526Z,12.07
2018-11-29T21:30:46.712Z,11.57
2018-11-29T21:33:16.435Z,10.37
2018-11-29T21:38:46.014Z,13.43
2018-11-29T21:44:28.743Z,11.73
2018-11-29T21:47:07.757Z,13.00
2018-11-29T21:49:36.692Z,13.27
2018-11-29T21:52:10.913Z,11.63
2018-11-29T21:55:02.470Z,10.73
2018-11-29T22:00:06.065Z,11.57
2018-11-29T22:02:41.954Z,11.53
2018-11-29T22:05:29.377Z,11.20
2018-11-29T22:08:03.092Z,12.07
2018-11-29T22:10:32.605Z,10.90
2018-11-29T22:13:06.459Z,15.23
2018-11-29T22:15:39.421Z,11.53
2018-11-29T22:18:27.025Z,11.80
2018-11-29T22:21:16.948Z,10.97
2018-11-29T22:23:50.518Z,11.33
2018-11-29T22:29:21.555Z,13.00
2018-11-29T22:31:50.838Z,10.50
2018-11-29T22:34:19.796Z,10.40
2018-11-29T22:37:07.877Z,10.53
2018-11-29T22:42:41.131Z,10.27
2018-11-29T22:45:11.046Z,10.40
2018-11-29T22:47:43.709Z,10.87
2018-11-29T22:50:25.598Z,13.50
2018-11-29T22:53:04.262Z,12.07
2018-11-29T22:55:41.797Z,10.60
2018-11-29T22:58:12.734Z,11.20
2018-11-29T23:00:47.023Z,10.60
2018-11-29T23:03:16.020Z,11.37
2018-11-29T23:05:54.705Z,10.57
2018-11-29T23:08:45.989Z,13.53
2018-11-29T23:11:25.565Z,10.93
2018-11-29T23:13:57.817Z,12.97
2018-11-29T23:16:44.551Z,10.90
2018-11-29T23:19:36.230Z,9.93
2018-11-29T23:22:09.956Z,10.73
2018-11-29T23:24:38.971Z,8.50
2018-11-29T23:27:08.010Z,10.43
2018-11-29T23:29:44.726Z,9.97
2018-11-29T23:32:23.750Z,9.57
2018-11-29T23:34:52.922Z,10.93
2018-11-29T23:37:21.789Z,10.47
2018-11-29T23:42:54.353Z,9.83
2018-11-29T23:45:25.280Z,11.63
2018-11-29T23:47:56.248Z,13.27
2018-11-29T23:50:25.269Z,10.23
2018-11-29T23:52:55.245Z,9.83
2018-11-29T23:55:30.363Z,10.33
2018-11-29T23:57:59.305Z,10.13
